sensor_id;sensor_type;location;lat;lon;timestamp;temperature;humidity
41481;DHT22;27217;51.220;5.308;2024-01-10T00:01:43;-4.10;98.60
41481;DHT22;27217;51.220;5.308;2024-01-10T00:04:09;-4.00;98.70
41481;DHT22;27217;51.220;5.308;2024-01-10T00:06:35;-3.80;98.60
41481;DHT22;27217;51.220;5.308;2024-01-10T00:09:01;-4.00;98.60
41481;DHT22;27217;51.220;5.308;2024-01-10T00:11:27;-3.90;99.20
41481;DHT22;27217;51.220;5.308;2024-01-10T00:13:53;-3.90;99.00
41481;DHT22;27217;51.220;5.308;2024-01-10T00:16:25;-4.20;98.90
41481;DHT22;27217;51.220;5.308;2024-01-10T00:18:51;-3.90;99.80
41481;DHT22;27217;51.220;5.308;2024-01-10T00:21:17;-3.70;98.30
41481;DHT22;27217;51.220;5.308;2024-01-10T00:23:43;-3.60;97.10
41481;DHT22;27217;51.220;5.308;2024-01-10T00:26:12;-3.70;97.40
41481;DHT22;27217;51.220;5.308;2024-01-10T00:31:14;-3.70;96.80
41481;DHT22;27217;51.220;5.308;2024-01-10T00:33:40;-3.70;96.50
41481;DHT22;27217;51.220;5.308;2024-01-10T00:36:06;-3.80;96.80
41481;DHT22;27217;51.220;5.308;2024-01-10T00:38:32;-3.80;97.30
41481;DHT22;27217;51.220;5.308;2024-01-10T00:40:58;-3.80;97.50
41481;DHT22;27217;51.220;5.308;2024-01-10T00:43:24;-3.70;96.30
41481;DHT22;27217;51.220;5.308;2024-01-10T00:45:50;-3.80;96.90
41481;DHT22;27217;51.220;5.308;2024-01-10T00:48:16;-3.70;97.10
41481;DHT22;27217;51.220;5.308;2024-01-10T00:50:43;-4.00;97.70
41481;DHT22;27217;51.220;5.308;2024-01-10T00:53:12;-3.80;97.20
41481;DHT22;27217;51.220;5.308;2024-01-10T00:55:38;-3.60;96.40
41481;DHT22;27217;51.220;5.308;2024-01-10T00:58:04;-3.90;97.00
41481;DHT22;27217;51.220;5.308;2024-01-10T01:00:30;-3.90;97.60
41481;DHT22;27217;51.220;5.308;2024-01-10T01:02:55;-3.90;97.70
41481;DHT22;27217;51.220;5.308;2024-01-10T01:05:21;-4.10;98.00
41481;DHT22;27217;51.220;5.308;2024-01-10T01:07:47;-4.00;98.60
41481;DHT22;27217;51.220;5.308;2024-01-10T01:10:13;-4.00;98.80
41481;DHT22;27217;51.220;5.308;2024-01-10T01:12:38;-4.10;98.60
41481;DHT22;27217;51.220;5.308;2024-01-10T01:15:05;-4.10;98.40
41481;DHT22;27217;51.220;5.308;2024-01-10T01:17:31;-4.10;98.60
41481;DHT22;27217;51.220;5.308;2024-01-10T01:19:57;-4.00;98.60
41481;DHT22;27217;51.220;5.308;2024-01-10T01:22:22;-3.90;97.60
41481;DHT22;27217;51.220;5.308;2024-01-10T01:24:48;-3.80;97.20
41481;DHT22;27217;51.220;5.308;2024-01-10T01:27:14;-3.80;97.00
41481;DHT22;27217;51.220;5.308;2024-01-10T01:29:39;-3.80;96.90
41481;DHT22;27217;51.220;5.308;2024-01-10T01:32:05;-3.90;97.30
41481;DHT22;27217;51.220;5.308;2024-01-10T01:34:31;-4.00;97.80
41481;DHT22;27217;51.220;5.308;2024-01-10T01:36:57;-4.10;98.90
41481;DHT22;27217;51.220;5.308;2024-01-10T01:39:22;-4.30;99.30
41481;DHT22;27217;51.220;5.308;2024-01-10T01:41:48;-4.20;99.70
41481;DHT22;27217;51.220;5.308;2024-01-10T01:44:14;-4.20;99.40
41481;DHT22;27217;51.220;5.308;2024-01-10T01:46:39;-4.10;99.70
41481;DHT22;27217;51.220;5.308;2024-01-10T01:49:10;-4.10;99.40
41481;DHT22;27217;51.220;5.308;2024-01-10T01:51:36;-4.10;99.00
41481;DHT22;27217;51.220;5.308;2024-01-10T01:54:06;-4.20;99.10
41481;DHT22;27217;51.220;5.308;2024-01-10T01:56:34;-4.10;99.70
41481;DHT22;27217;51.220;5.308;2024-01-10T01:59:01;-4.10;98.10
41481;DHT22;27217;51.220;5.308;2024-01-10T02:01:28;-4.00;98.50
41481;DHT22;27217;51.220;5.308;2024-01-10T02:03:55;-3.70;97.50
41481;DHT22;27217;51.220;5.308;2024-01-10T02:06:21;-3.90;97.80
41481;DHT22;27217;51.220;5.308;2024-01-10T02:08:47;-4.00;97.90
41481;DHT22;27217;51.220;5.308;2024-01-10T02:11:12;-4.00;97.70
41481;DHT22;27217;51.220;5.308;2024-01-10T02:13:38;-4.10;98.10
41481;DHT22;27217;51.220;5.308;2024-01-10T02:16:04;-4.10;98.30
41481;DHT22;27217;51.220;5.308;2024-01-10T02:18:30;-4.10;97.70
41481;DHT22;27217;51.220;5.308;2024-01-10T02:20:56;-4.00;97.50
41481;DHT22;27217;51.220;5.308;2024-01-10T02:23:23;-4.20;97.80
41481;DHT22;27217;51.220;5.308;2024-01-10T02:25:49;-4.10;98.40
41481;DHT22;27217;51.220;5.308;2024-01-10T02:28:15;-4.20;98.60
41481;DHT22;27217;51.220;5.308;2024-01-10T02:30:40;-4.30;98.80
41481;DHT22;27217;51.220;5.308;2024-01-10T02:33:06;-4.10;98.90
41481;DHT22;27217;51.220;5.308;2024-01-10T02:35:32;-4.30;99.60
41481;DHT22;27217;51.220;5.308;2024-01-10T02:37:58;-4.30;99.90
41481;DHT22;27217;51.220;5.308;2024-01-10T02:40:24;-4.40;99.90
41481;DHT22;27217;51.220;5.308;2024-01-10T02:42:50;-4.30;99.70
41481;DHT22;27217;51.220;5.308;2024-01-10T02:45:17;-4.30;99.90
41481;DHT22;27217;51.220;5.308;2024-01-10T02:47:45;-4.30;99.90
41481;DHT22;27217;51.220;5.308;2024-01-10T02:50:11;-4.30;99.90
41481;DHT22;27217;51.220;5.308;2024-01-10T02:52:37;-4.30;99.80
41481;DHT22;27217;51.220;5.308;2024-01-10T02:55:02;-4.30;99.90
41481;DHT22;27217;51.220;5.308;2024-01-10T02:57:28;-4.50;99.90
41481;DHT22;27217;51.220;5.308;2024-01-10T02:59:55;-4.50;99.90
41481;DHT22;27217;51.220;5.308;2024-01-10T03:02:20;-4.60;99.90
41481;DHT22;27217;51.220;5.308;2024-01-10T03:04:48;-4.50;99.90
41481;DHT22;27217;51.220;5.308;2024-01-10T03:07:14;-4.40;99.90
41481;DHT22;27217;51.220;5.308;2024-01-10T03:09:40;-4.60;99.90
41481;DHT22;27217;51.220;5.308;2024-01-10T03:12:06;-4.50;99.90
41481;DHT22;27217;51.220;5.308;2024-01-10T03:14:33;-4.50;99.90
41481;DHT22;27217;51.220;5.308;2024-01-10T03:16:59;-4.50;99.90
41481;DHT22;27217;51.220;5.308;2024-01-10T03:19:25;-4.40;99.90
41481;DHT22;27217;51.220;5.308;2024-01-10T03:21:51;-4.20;99.90
41481;DHT22;27217;51.220;5.308;2024-01-10T03:24:16;-4.20;99.70
41481;DHT22;27217;51.220;5.308;2024-01-10T03:26:42;-4.50;99.90
41481;DHT22;27217;51.220;5.308;2024-01-10T03:29:08;-4.40;99.90
41481;DHT22;27217;51.220;5.308;2024-01-10T03:31:34;-4.50;99.90
41481;DHT22;27217;51.220;5.308;2024-01-10T03:34:00;-4.40;99.90
41481;DHT22;27217;51.220;5.308;2024-01-10T03:36:26;-4.50;99.90
41481;DHT22;27217;51.220;5.308;2024-01-10T03:38:51;-4.60;99.90
41481;DHT22;27217;51.220;5.308;2024-01-10T03:41:18;-4.50;99.90
41481;DHT22;27217;51.220;5.308;2024-01-10T03:43:45;-4.40;99.90
41481;DHT22;27217;51.220;5.308;2024-01-10T03:46:11;-4.20;99.90
41481;DHT22;27217;51.220;5.308;2024-01-10T03:48:38;-4.10;99.00
41481;DHT22;27217;51.220;5.308;2024-01-10T03:51:08;-4.40;99.40
41481;DHT22;27217;51.220;5.308;2024-01-10T03:53:34;-4.70;99.90
41481;DHT22;27217;51.220;5.308;2024-01-10T03:56:03;-4.60;99.90
41481;DHT22;27217;51.220;5.308;2024-01-10T03:58:29;-4.60;99.90
41481;DHT22;27217;51.220;5.308;2024-01-10T04:00:54;-4.70;99.90
41481;DHT22;27217;51.220;5.308;2024-01-10T04:03:20;-4.60;99.90
41481;DHT22;27217;51.220;5.308;2024-01-10T04:05:46;-4.60;99.90
41481;DHT22;27217;51.220;5.308;2024-01-10T04:08:11;-4.80;99.90
41481;DHT22;27217;51.220;5.308;2024-01-10T04:10:37;-4.50;99.90
41481;DHT22;27217;51.220;5.308;2024-01-10T04:13:03;-4.50;99.90
41481;DHT22;27217;51.220;5.308;2024-01-10T04:15:29;-4.60;99.90
41481;DHT22;27217;51.220;5.308;2024-01-10T04:17:54;-4.70;99.90
41481;DHT22;27217;51.220;5.308;2024-01-10T04:20:20;-4.60;99.90
41481;DHT22;27217;51.220;5.308;2024-01-10T04:22:46;-4.70;99.90
41481;DHT22;27217;51.220;5.308;2024-01-10T04:25:12;-4.70;99.90
41481;DHT22;27217;51.220;5.308;2024-01-10T04:27:37;-4.90;99.90
41481;DHT22;27217;51.220;5.308;2024-01-10T04:30:04;-5.10;99.90
41481;DHT22;27217;51.220;5.308;2024-01-10T04:32:30;-5.00;99.90
41481;DHT22;27217;51.220;5.308;2024-01-10T04:34:56;-4.90;99.90
41481;DHT22;27217;51.220;5.308;2024-01-10T04:37:22;-4.80;99.90
41481;DHT22;27217;51.220;5.308;2024-01-10T04:39:48;-4.80;99.90
41481;DHT22;27217;51.220;5.308;2024-01-10T04:42:13;-4.90;99.90
41481;DHT22;27217;51.220;5.308;2024-01-10T04:44:39;-5.00;99.90
41481;DHT22;27217;51.220;5.308;2024-01-10T04:47:06;-4.80;99.90
41481;DHT22;27217;51.220;5.308;2024-01-10T04:49:32;-4.90;99.90
41481;DHT22;27217;51.220;5.308;2024-01-10T04:51:58;-4.90;99.90
41481;DHT22;27217;51.220;5.308;2024-01-10T04:54:27;-4.90;99.90
41481;DHT22;27217;51.220;5.308;2024-01-10T04:56:52;-4.70;99.90
41481;DHT22;27217;51.220;5.308;2024-01-10T04:59:18;-4.80;99.90
41481;DHT22;27217;51.220;5.308;2024-01-10T05:01:44;-4.90;99.90
41481;DHT22;27217;51.220;5.308;2024-01-10T05:04:09;-5.00;99.90
41481;DHT22;27217;51.220;5.308;2024-01-10T05:06:35;-5.00;99.90
41481;DHT22;27217;51.220;5.308;2024-01-10T05:09:01;-5.00;99.90
41481;DHT22;27217;51.220;5.308;2024-01-10T05:11:27;-4.80;99.90
41481;DHT22;27217;51.220;5.308;2024-01-10T05:13:53;-5.10;99.90
41481;DHT22;27217;51.220;5.308;2024-01-10T05:16:19;-4.90;99.90
41481;DHT22;27217;51.220;5.308;2024-01-10T05:18:45;-4.80;99.90
41481;DHT22;27217;51.220;5.308;2024-01-10T05:21:12;-4.80;99.90
41481;DHT22;27217;51.220;5.308;2024-01-10T05:23:37;-4.70;99.90
41481;DHT22;27217;51.220;5.308;2024-01-10T05:26:05;-4.90;99.90
41481;DHT22;27217;51.220;5.308;2024-01-10T05:28:30;-5.00;99.90
41481;DHT22;27217;51.220;5.308;2024-01-10T05:31:46;-4.90;99.90
41481;DHT22;27217;51.220;5.308;2024-01-10T05:34:12;-4.80;99.90
41481;DHT22;27217;51.220;5.308;2024-01-10T05:36:38;-4.60;99.90
41481;DHT22;27217;51.220;5.308;2024-01-10T05:39:03;-4.80;99.90
41481;DHT22;27217;51.220;5.308;2024-01-10T05:41:29;-4.70;99.90
41481;DHT22;27217;51.220;5.308;2024-01-10T05:43:55;-4.60;99.90
41481;DHT22;27217;51.220;5.308;2024-01-10T05:46:20;-4.80;99.90
41481;DHT22;27217;51.220;5.308;2024-01-10T05:48:46;-4.80;99.90
41481;DHT22;27217;51.220;5.308;2024-01-10T05:51:12;-4.90;99.90
41481;DHT22;27217;51.220;5.308;2024-01-10T05:53:38;-4.80;99.90
41481;DHT22;27217;51.220;5.308;2024-01-10T05:56:05;-5.00;99.90
41481;DHT22;27217;51.220;5.308;2024-01-10T05:58:31;-5.00;99.90
41481;DHT22;27217;51.220;5.308;2024-01-10T06:00:57;-4.90;99.90
41481;DHT22;27217;51.220;5.308;2024-01-10T06:03:23;-4.80;99.90
41481;DHT22;27217;51.220;5.308;2024-01-10T06:05:50;-4.70;99.90
41481;DHT22;27217;51.220;5.308;2024-01-10T06:08:16;-4.90;99.90
41481;DHT22;27217;51.220;5.308;2024-01-10T06:10:41;-4.90;99.90
41481;DHT22;27217;51.220;5.308;2024-01-10T06:13:08;-4.40;99.90
41481;DHT22;27217;51.220;5.308;2024-01-10T06:15:33;-4.90;99.90
41481;DHT22;27217;51.220;5.308;2024-01-10T06:17:59;-4.80;99.90
41481;DHT22;27217;51.220;5.308;2024-01-10T06:20:25;-4.70;99.90
41481;DHT22;27217;51.220;5.308;2024-01-10T06:22:50;-4.60;99.90
41481;DHT22;27217;51.220;5.308;2024-01-10T06:25:16;-4.90;99.90
41481;DHT22;27217;51.220;5.308;2024-01-10T06:27:42;-5.10;99.90
41481;DHT22;27217;51.220;5.308;2024-01-10T06:30:08;-4.90;99.90
41481;DHT22;27217;51.220;5.308;2024-01-10T06:32:34;-4.90;99.90
41481;DHT22;27217;51.220;5.308;2024-01-10T06:35:00;-4.90;99.90
41481;DHT22;27217;51.220;5.308;2024-01-10T06:37:28;-5.00;99.90
41481;DHT22;27217;51.220;5.308;2024-01-10T06:39:53;-4.80;99.90
41481;DHT22;27217;51.220;5.308;2024-01-10T06:42:19;-4.70;99.90
41481;DHT22;27217;51.220;5.308;2024-01-10T06:44:45;-4.70;99.90
41481;DHT22;27217;51.220;5.308;2024-01-10T06:47:11;-4.40;99.90
41481;DHT22;27217;51.220;5.308;2024-01-10T06:49:37;-4.50;99.90
41481;DHT22;27217;51.220;5.308;2024-01-10T06:52:04;-4.60;99.90
41481;DHT22;27217;51.220;5.308;2024-01-10T06:54:32;-4.80;99.90
41481;DHT22;27217;51.220;5.308;2024-01-10T06:56:58;-4.70;99.90
41481;DHT22;27217;51.220;5.308;2024-01-10T06:59:23;-5.00;99.90
41481;DHT22;27217;51.220;5.308;2024-01-10T07:01:53;-5.00;99.90
41481;DHT22;27217;51.220;5.308;2024-01-10T07:04:19;-4.70;99.90
41481;DHT22;27217;51.220;5.308;2024-01-10T07:06:47;-4.80;99.90
41481;DHT22;27217;51.220;5.308;2024-01-10T07:09:13;-4.80;99.90
41481;DHT22;27217;51.220;5.308;2024-01-10T07:11:45;-4.70;99.90
41481;DHT22;27217;51.220;5.308;2024-01-10T07:14:13;-4.90;99.90
41481;DHT22;27217;51.220;5.308;2024-01-10T07:16:39;-4.70;99.90
41481;DHT22;27217;51.220;5.308;2024-01-10T07:19:09;-4.80;99.90
41481;DHT22;27217;51.220;5.308;2024-01-10T07:21:34;-4.80;99.90
41481;DHT22;27217;51.220;5.308;2024-01-10T07:24:00;-4.80;99.90
41481;DHT22;27217;51.220;5.308;2024-01-10T07:26:26;-4.40;99.90
41481;DHT22;27217;51.220;5.308;2024-01-10T07:28:53;-4.40;99.90
41481;DHT22;27217;51.220;5.308;2024-01-10T07:31:18;-4.60;99.90
41481;DHT22;27217;51.220;5.308;2024-01-10T07:33:44;-3.90;99.90
41481;DHT22;27217;51.220;5.308;2024-01-10T07:36:10;-4.00;99.90
41481;DHT22;27217;51.220;5.308;2024-01-10T07:38:37;-4.00;99.90
41481;DHT22;27217;51.220;5.308;2024-01-10T07:41:03;-4.30;99.90
41481;DHT22;27217;51.220;5.308;2024-01-10T07:43:29;-4.10;99.90
41481;DHT22;27217;51.220;5.308;2024-01-10T07:45:55;-4.20;99.90
41481;DHT22;27217;51.220;5.308;2024-01-10T07:48:20;-4.10;99.90
41481;DHT22;27217;51.220;5.308;2024-01-10T07:50:46;-4.00;99.90
41481;DHT22;27217;51.220;5.308;2024-01-10T07:53:12;-4.20;99.90
41481;DHT22;27217;51.220;5.308;2024-01-10T07:55:38;-4.40;99.90
41481;DHT22;27217;51.220;5.308;2024-01-10T07:58:05;-4.50;99.90
41481;DHT22;27217;51.220;5.308;2024-01-10T08:00:31;-4.40;99.90
41481;DHT22;27217;51.220;5.308;2024-01-10T08:02:56;-4.50;99.90
41481;DHT22;27217;51.220;5.308;2024-01-10T08:05:24;-4.60;99.90
41481;DHT22;27217;51.220;5.308;2024-01-10T08:07:50;-4.60;99.90
41481;DHT22;27217;51.220;5.308;2024-01-10T08:10:16;-4.50;99.90
41481;DHT22;27217;51.220;5.308;2024-01-10T08:12:44;-4.50;99.90
41481;DHT22;27217;51.220;5.308;2024-01-10T08:15:10;-4.20;99.90
41481;DHT22;27217;51.220;5.308;2024-01-10T08:17:36;-4.40;99.90
41481;DHT22;27217;51.220;5.308;2024-01-10T08:20:07;-4.30;99.90
41481;DHT22;27217;51.220;5.308;2024-01-10T08:22:33;-4.20;99.90
41481;DHT22;27217;51.220;5.308;2024-01-10T08:24:59;-4.00;99.90
41481;DHT22;27217;51.220;5.308;2024-01-10T08:27:25;-4.10;99.90
41481;DHT22;27217;51.220;5.308;2024-01-10T08:29:51;-4.20;99.90
41481;DHT22;27217;51.220;5.308;2024-01-10T08:32:17;-4.40;99.90
41481;DHT22;27217;51.220;5.308;2024-01-10T08:34:44;-4.20;99.90
41481;DHT22;27217;51.220;5.308;2024-01-10T08:37:10;-3.90;99.90
41481;DHT22;27217;51.220;5.308;2024-01-10T08:39:36;-3.70;99.90
41481;DHT22;27217;51.220;5.308;2024-01-10T08:42:02;-3.80;99.90
41481;DHT22;27217;51.220;5.308;2024-01-10T08:44:28;-4.40;99.90
41481;DHT22;27217;51.220;5.308;2024-01-10T08:46:54;-4.10;99.90
41481;DHT22;27217;51.220;5.308;2024-01-10T08:49:24;-4.10;99.90
41481;DHT22;27217;51.220;5.308;2024-01-10T08:51:51;-3.90;99.90
41481;DHT22;27217;51.220;5.308;2024-01-10T08:54:19;-4.00;99.90
41481;DHT22;27217;51.220;5.308;2024-01-10T08:56:46;-4.00;99.90
41481;DHT22;27217;51.220;5.308;2024-01-10T08:59:12;-4.00;99.90
41481;DHT22;27217;51.220;5.308;2024-01-10T09:01:38;-3.90;99.90
41481;DHT22;27217;51.220;5.308;2024-01-10T09:04:04;-3.70;99.90
41481;DHT22;27217;51.220;5.308;2024-01-10T09:06:34;-3.60;99.90
41481;DHT22;27217;51.220;5.308;2024-01-10T09:09:02;-3.60;99.90
41481;DHT22;27217;51.220;5.308;2024-01-10T09:11:28;-3.50;99.90
41481;DHT22;27217;51.220;5.308;2024-01-10T09:13:54;-3.20;99.90
41481;DHT22;27217;51.220;5.308;2024-01-10T09:16:20;-2.90;99.90
41481;DHT22;27217;51.220;5.308;2024-01-10T09:18:45;-3.00;99.90
41481;DHT22;27217;51.220;5.308;2024-01-10T09:21:11;-3.00;99.90
41481;DHT22;27217;51.220;5.308;2024-01-10T09:23:37;-2.50;99.90
41481;DHT22;27217;51.220;5.308;2024-01-10T09:26:03;-2.70;99.90
41481;DHT22;27217;51.220;5.308;2024-01-10T09:28:29;-2.60;99.90
41481;DHT22;27217;51.220;5.308;2024-01-10T09:30:55;-2.70;98.00
41481;DHT22;27217;51.220;5.308;2024-01-10T09:33:20;-2.50;96.50
41481;DHT22;27217;51.220;5.308;2024-01-10T09:35:48;-2.80;96.90
41481;DHT22;27217;51.220;5.308;2024-01-10T09:38:14;-2.80;96.50
41481;DHT22;27217;51.220;5.308;2024-01-10T09:40:40;-2.90;97.10
41481;DHT22;27217;51.220;5.308;2024-01-10T09:43:06;-2.50;97.60
41481;DHT22;27217;51.220;5.308;2024-01-10T09:45:35;-2.40;96.00
41481;DHT22;27217;51.220;5.308;2024-01-10T09:48:02;-2.50;95.30
41481;DHT22;27217;51.220;5.308;2024-01-10T09:50:28;-2.40;95.10
41481;DHT22;27217;51.220;5.308;2024-01-10T09:53:06;-2.60;94.40
41481;DHT22;27217;51.220;5.308;2024-01-10T09:55:35;-2.60;95.20
41481;DHT22;27217;51.220;5.308;2024-01-10T09:58:05;-2.70;95.20
41481;DHT22;27217;51.220;5.308;2024-01-10T10:00:33;-2.40;94.30
41481;DHT22;27217;51.220;5.308;2024-01-10T10:03:07;-2.30;93.30
41481;DHT22;27217;51.220;5.308;2024-01-10T10:05:36;-1.90;92.80
41481;DHT22;27217;51.220;5.308;2024-01-10T10:08:05;-2.20;92.30
41481;DHT22;27217;51.220;5.308;2024-01-10T10:10:32;-2.40;92.60
41481;DHT22;27217;51.220;5.308;2024-01-10T10:12:58;-2.20;93.10
41481;DHT22;27217;51.220;5.308;2024-01-10T10:15:24;-2.10;93.70
41481;DHT22;27217;51.220;5.308;2024-01-10T10:17:54;-1.70;92.60
41481;DHT22;27217;51.220;5.308;2024-01-10T10:20:30;-1.90;91.30
41481;DHT22;27217;51.220;5.308;2024-01-10T10:25:35;-1.90;91.80
41481;DHT22;27217;51.220;5.308;2024-01-10T10:28:02;-1.90;91.60
41481;DHT22;27217;51.220;5.308;2024-01-10T10:30:29;-2.00;91.10
41481;DHT22;27217;51.220;5.308;2024-01-10T10:32:56;-1.80;91.60
41481;DHT22;27217;51.220;5.308;2024-01-10T10:35:22;-1.70;92.20
41481;DHT22;27217;51.220;5.308;2024-01-10T10:37:50;-1.50;91.10
41481;DHT22;27217;51.220;5.308;2024-01-10T10:40:19;-1.10;89.40
41481;DHT22;27217;51.220;5.308;2024-01-10T10:42:49;-1.20;88.70
41481;DHT22;27217;51.220;5.308;2024-01-10T10:45:18;-0.70;86.10
41481;DHT22;27217;51.220;5.308;2024-01-10T10:47:46;0.30;80.80
41481;DHT22;27217;51.220;5.308;2024-01-10T10:50:22;1.20;74.90
41481;DHT22;27217;51.220;5.308;2024-01-10T10:52:51;2.20;70.50
41481;DHT22;27217;51.220;5.308;2024-01-10T10:55:18;2.60;66.10
41481;DHT22;27217;51.220;5.308;2024-01-10T10:57:48;2.90;64.90
41481;DHT22;27217;51.220;5.308;2024-01-10T11:00:16;3.10;62.90
41481;DHT22;27217;51.220;5.308;2024-01-10T11:02:43;3.70;61.10
41481;DHT22;27217;51.220;5.308;2024-01-10T11:05:10;4.30;60.20
41481;DHT22;27217;51.220;5.308;2024-01-10T11:07:39;4.70;57.50
41481;DHT22;27217;51.220;5.308;2024-01-10T11:10:20;5.30;56.40
41481;DHT22;27217;51.220;5.308;2024-01-10T11:13:00;6.20;53.60
41481;DHT22;27217;51.220;5.308;2024-01-10T11:21:23;6.00;50.90
41481;DHT22;27217;51.220;5.308;2024-01-10T11:23:58;6.70;51.10
41481;DHT22;27217;51.220;5.308;2024-01-10T11:26:25;6.90;49.20
41481;DHT22;27217;51.220;5.308;2024-01-10T11:28:51;6.80;48.30
41481;DHT22;27217;51.220;5.308;2024-01-10T11:31:31;6.60;48.80
41481;DHT22;27217;51.220;5.308;2024-01-10T11:33:58;7.00;48.00
41481;DHT22;27217;51.220;5.308;2024-01-10T11:36:25;6.70;47.90
41481;DHT22;27217;51.220;5.308;2024-01-10T11:46:38;6.80;46.70
41481;DHT22;27217;51.220;5.308;2024-01-10T11:49:11;7.00;47.20
41481;DHT22;27217;51.220;5.308;2024-01-10T11:51:45;7.20;47.00
41481;DHT22;27217;51.220;5.308;2024-01-10T11:54:11;6.60;47.10
41481;DHT22;27217;51.220;5.308;2024-01-10T11:56:41;6.50;47.70
41481;DHT22;27217;51.220;5.308;2024-01-10T11:59:12;6.50;47.90
41481;DHT22;27217;51.220;5.308;2024-01-10T12:01:38;6.60;47.30
41481;DHT22;27217;51.220;5.308;2024-01-10T12:04:05;7.50;46.00
41481;DHT22;27217;51.220;5.308;2024-01-10T12:06:31;7.50;45.50
41481;DHT22;27217;51.220;5.308;2024-01-10T12:08:58;6.80;46.20
41481;DHT22;27217;51.220;5.308;2024-01-10T12:11:25;5.60;48.00
41481;DHT22;27217;51.220;5.308;2024-01-10T12:13:50;6.10;47.60
41481;DHT22;27217;51.220;5.308;2024-01-10T12:16:17;7.20;46.40
41481;DHT22;27217;51.220;5.308;2024-01-10T12:18:43;7.40;45.50
41481;DHT22;27217;51.220;5.308;2024-01-10T12:21:09;8.40;44.90
41481;DHT22;27217;51.220;5.308;2024-01-10T12:23:39;9.10;42.90
41481;DHT22;27217;51.220;5.308;2024-01-10T12:26:07;9.60;42.50
41481;DHT22;27217;51.220;5.308;2024-01-10T12:28:35;10.00;41.70
41481;DHT22;27217;51.220;5.308;2024-01-10T12:31:03;10.70;41.10
41481;DHT22;27217;51.220;5.308;2024-01-10T12:33:29;9.20;41.90
41481;DHT22;27217;51.220;5.308;2024-01-10T12:36:07;9.40;42.60
41481;DHT22;27217;51.220;5.308;2024-01-10T12:38:35;10.50;40.80
41481;DHT22;27217;51.220;5.308;2024-01-10T12:41:01;10.40;39.10
41481;DHT22;27217;51.220;5.308;2024-01-10T12:43:28;9.60;40.30
41481;DHT22;27217;51.220;5.308;2024-01-10T12:46:10;8.80;41.30
41481;DHT22;27217;51.220;5.308;2024-01-10T12:48:42;8.20;42.90
41481;DHT22;27217;51.220;5.308;2024-01-10T12:51:08;8.70;42.80
41481;DHT22;27217;51.220;5.308;2024-01-10T12:53:42;9.50;41.90
41481;DHT22;27217;51.220;5.308;2024-01-10T12:56:10;10.40;40.00
41481;DHT22;27217;51.220;5.308;2024-01-10T12:58:41;10.60;39.20
41481;DHT22;27217;51.220;5.308;2024-01-10T13:01:10;9.60;39.40
41481;DHT22;27217;51.220;5.308;2024-01-10T13:03:37;9.60;39.90
41481;DHT22;27217;51.220;5.308;2024-01-10T13:06:04;8.40;41.10
41481;DHT22;27217;51.220;5.308;2024-01-10T13:08:30;8.40;42.90
41481;DHT22;27217;51.220;5.308;2024-01-10T13:10:58;8.40;43.10
41481;DHT22;27217;51.220;5.308;2024-01-10T13:13:25;9.40;41.30
41481;DHT22;27217;51.220;5.308;2024-01-10T13:15:51;9.20;41.30
41481;DHT22;27217;51.220;5.308;2024-01-10T13:18:17;9.70;40.60
41481;DHT22;27217;51.220;5.308;2024-01-10T13:20:44;9.30;40.60
41481;DHT22;27217;51.220;5.308;2024-01-10T13:23:10;8.90;41.00
41481;DHT22;27217;51.220;5.308;2024-01-10T13:25:36;8.60;42.00
41481;DHT22;27217;51.220;5.308;2024-01-10T13:28:03;8.40;42.10
41481;DHT22;27217;51.220;5.308;2024-01-10T13:30:30;8.60;41.70
41481;DHT22;27217;51.220;5.308;2024-01-10T13:32:56;8.40;41.90
41481;DHT22;27217;51.220;5.308;2024-01-10T13:35:23;8.10;42.50
41481;DHT22;27217;51.220;5.308;2024-01-10T13:37:49;7.00;43.60
41481;DHT22;27217;51.220;5.308;2024-01-10T13:40:15;6.50;45.00
41481;DHT22;27217;51.220;5.308;2024-01-10T13:42:42;5.40;46.90
41481;DHT22;27217;51.220;5.308;2024-01-10T13:45:09;4.80;48.50
41481;DHT22;27217;51.220;5.308;2024-01-10T13:47:39;4.10;50.10
41481;DHT22;27217;51.220;5.308;2024-01-10T13:50:08;4.10;51.00
41481;DHT22;27217;51.220;5.308;2024-01-10T13:52:35;4.00;51.10
41481;DHT22;27217;51.220;5.308;2024-01-10T13:55:02;4.20;50.80
41481;DHT22;27217;51.220;5.308;2024-01-10T13:57:30;4.80;50.30
41481;DHT22;27217;51.220;5.308;2024-01-10T13:59:56;4.80;49.90
41481;DHT22;27217;51.220;5.308;2024-01-10T14:02:22;4.90;49.90
41481;DHT22;27217;51.220;5.308;2024-01-10T14:04:48;4.20;51.10
41481;DHT22;27217;51.220;5.308;2024-01-10T14:07:14;4.00;51.70
41481;DHT22;27217;51.220;5.308;2024-01-10T14:09:39;3.40;52.70
41481;DHT22;27217;51.220;5.308;2024-01-10T14:12:05;3.30;53.20
41481;DHT22;27217;51.220;5.308;2024-01-10T14:14:31;3.10;53.80
41481;DHT22;27217;51.220;5.308;2024-01-10T14:16:57;3.10;53.90
41481;DHT22;27217;51.220;5.308;2024-01-10T14:19:23;2.70;54.80
41481;DHT22;27217;51.220;5.308;2024-01-10T14:21:49;2.60;55.70
41481;DHT22;27217;51.220;5.308;2024-01-10T14:24:14;2.60;55.40
41481;DHT22;27217;51.220;5.308;2024-01-10T14:26:41;2.30;56.40
41481;DHT22;27217;51.220;5.308;2024-01-10T14:29:07;2.00;57.40
41481;DHT22;27217;51.220;5.308;2024-01-10T14:31:33;1.90;57.90
41481;DHT22;27217;51.220;5.308;2024-01-10T14:33:59;1.90;59.00
41481;DHT22;27217;51.220;5.308;2024-01-10T14:36:25;1.70;58.80
41481;DHT22;27217;51.220;5.308;2024-01-10T14:38:51;1.60;59.50
41481;DHT22;27217;51.220;5.308;2024-01-10T14:41:16;1.50;60.10
41481;DHT22;27217;51.220;5.308;2024-01-10T14:43:42;1.30;60.50
41481;DHT22;27217;51.220;5.308;2024-01-10T14:46:08;1.90;60.70
41481;DHT22;27217;51.220;5.308;2024-01-10T14:48:36;2.20;59.60
41481;DHT22;27217;51.220;5.308;2024-01-10T14:51:02;3.10;57.50
41481;DHT22;27217;51.220;5.308;2024-01-10T14:53:30;3.50;55.80
41481;DHT22;27217;51.220;5.308;2024-01-10T14:55:56;4.70;53.90
41481;DHT22;27217;51.220;5.308;2024-01-10T14:58:22;5.20;52.60
41481;DHT22;27217;51.220;5.308;2024-01-10T15:00:48;5.60;50.30
41481;DHT22;27217;51.220;5.308;2024-01-10T15:03:14;6.10;50.30
41481;DHT22;27217;51.220;5.308;2024-01-10T15:05:44;6.10;50.10
41481;DHT22;27217;51.220;5.308;2024-01-10T15:08:10;5.50;50.70
41481;DHT22;27217;51.220;5.308;2024-01-10T15:10:38;5.60;50.30
41481;DHT22;27217;51.220;5.308;2024-01-10T15:13:10;5.30;50.60
41481;DHT22;27217;51.220;5.308;2024-01-10T15:15:43;5.00;51.90
41481;DHT22;27217;51.220;5.308;2024-01-10T15:18:10;3.80;52.80
41481;DHT22;27217;51.220;5.308;2024-01-10T15:20:40;3.30;55.20
41481;DHT22;27217;51.220;5.308;2024-01-10T15:23:09;3.00;55.20
41481;DHT22;27217;51.220;5.308;2024-01-10T15:25:43;2.40;57.10
41481;DHT22;27217;51.220;5.308;2024-01-10T15:28:13;2.30;57.70
41481;DHT22;27217;51.220;5.308;2024-01-10T15:31:06;2.10;58.10
41481;DHT22;27217;51.220;5.308;2024-01-10T15:33:43;1.70;59.20
41481;DHT22;27217;51.220;5.308;2024-01-10T15:36:16;1.60;60.00
41481;DHT22;27217;51.220;5.308;2024-01-10T15:38:49;1.40;60.80
41481;DHT22;27217;51.220;5.308;2024-01-10T15:42:02;1.30;60.80
41481;DHT22;27217;51.220;5.308;2024-01-10T15:45:19;1.40;60.90
41481;DHT22;27217;51.220;5.308;2024-01-10T15:48:21;1.00;62.10
41481;DHT22;27217;51.220;5.308;2024-01-10T15:53:46;1.00;62.80
41481;DHT22;27217;51.220;5.308;2024-01-10T15:56:59;0.90;63.40
41481;DHT22;27217;51.220;5.308;2024-01-10T16:07:34;0.40;64.50